Topock, Arizona
Current Conditions -  °F | °C
As of 9:56 AM on Wednesday 26 Nov 2014 (Local Time) from KEED Reporting Station
Clear Clear  
Wind Chill: 62°   Ceiling: Unl
Heat Index: 62°   Visibility: 10mi
Dew Point: 16°   Wind: 6mph
Humidity: 17%   Direction: 360°N
Pressure: 30.36"   Gusts: NA
Location:  34.73°N, 114.48°W
Report Text: KEED 261656Z AUTO 36005KT 10SM CLR 17/M09 A3036 RMK AO2 SLP269 T01671089
Loading
Personal Weather Stations






























Interactive Weather Map New forecast layout! Learn more

10-Day Weather Forecast

Advertisements
Track Severe Weather on mobile